createdAt,value
2023-04-15T00:01:25.257Z,93.77
2023-04-15T00:03:05.783Z,93.94
2023-04-15T00:04:45.924Z,94.09
2023-04-15T00:06:26.476Z,94.2
2023-04-15T00:08:06.736Z,94.01
2023-04-15T00:09:47.167Z,93.86
2023-04-15T00:11:27.556Z,93.73
2023-04-15T00:13:07.970Z,93.72
2023-04-15T00:14:48.343Z,93.7
2023-04-15T00:16:28.809Z,93.62
2023-04-15T00:18:09.217Z,93.25
2023-04-15T00:19:49.645Z,93.2
2023-04-15T00:21:30.031Z,93.24
2023-04-15T00:23:10.432Z,93.4
2023-04-15T00:24:50.828Z,93.71
2023-04-15T00:26:31.258Z,93.9
2023-04-15T00:28:11.725Z,93.77
2023-04-15T00:29:52.071Z,93.69
2023-04-15T00:31:32.429Z,93.66
2023-04-15T00:33:12.775Z,93.57
2023-04-15T00:34:53.035Z,93.66
2023-04-15T00:36:33.351Z,93.74
2023-04-15T00:38:13.639Z,93.77
2023-04-15T00:39:53.956Z,93.77
2023-04-15T00:41:34.266Z,94
2023-04-15T00:43:14.724Z,93.92
2023-04-15T00:44:55.053Z,93.51
2023-04-15T00:46:35.467Z,93.1
2023-04-15T00:48:15.846Z,93.2
2023-04-15T00:49:56.232Z,93.05
2023-04-15T00:51:36.578Z,92.94
2023-04-15T00:53:17.054Z,92.77
2023-04-15T00:54:57.481Z,92.52
2023-04-15T00:56:37.793Z,92.33
2023-04-15T00:58:18.206Z,92.64
2023-04-15T00:59:58.575Z,92.85
2023-04-15T01:01:38.984Z,93
2023-04-15T01:03:19.454Z,93.26
2023-04-15T01:04:59.736Z,93.36
2023-04-15T01:06:40.096Z,93.33
2023-04-15T01:08:20.418Z,93.39
2023-04-15T01:10:00.931Z,93.45
2023-04-15T01:11:41.278Z,93.7
2023-04-15T01:13:21.610Z,93.73
2023-04-15T01:15:01.967Z,93.97
2023-04-15T01:16:42.430Z,93.95
2023-04-15T01:18:22.863Z,94.05
2023-04-15T01:20:03.230Z,93.94
2023-04-15T01:21:43.512Z,93.96
2023-04-15T01:23:23.897Z,93.93
2023-04-15T01:25:04.284Z,93.86
2023-04-15T01:26:44.758Z,94.04
2023-04-15T01:28:25.115Z,94.1
2023-04-15T01:30:05.443Z,94.56
2023-04-15T01:31:45.907Z,94.69
2023-04-15T01:33:26.283Z,94.82
2023-04-15T01:35:06.714Z,94.85
2023-04-15T01:36:47.195Z,94.58
2023-04-15T01:38:27.565Z,94.44
2023-04-15T01:40:07.903Z,94.27
2023-04-15T01:41:48.297Z,94.03
2023-04-15T01:43:28.739Z,94.16
2023-04-15T01:45:09.113Z,94.78
2023-04-15T01:46:49.629Z,95.04
2023-04-15T01:48:30.030Z,95.24
2023-04-15T01:50:10.463Z,95.24
2023-04-15T01:51:50.912Z,95.18
2023-04-15T01:53:31.265Z,95.11
2023-04-15T01:55:11.621Z,94.75
2023-04-15T01:56:52.000Z,94.64
2023-04-15T01:58:32.415Z,94.61
2023-04-15T02:00:12.782Z,94.96
2023-04-15T02:01:53.271Z,95.25
2023-04-15T02:03:33.677Z,95.15
2023-04-15T02:05:14.086Z,95.27
2023-04-15T02:06:54.544Z,95.32
2023-04-15T02:08:34.975Z,95.27
2023-04-15T02:10:15.352Z,95.29
2023-04-15T02:11:55.741Z,95.46
2023-04-15T02:13:36.283Z,95.53
2023-04-15T02:15:16.658Z,95.61
2023-04-15T02:16:57.158Z,95.62
2023-04-15T02:18:37.386Z,95.82
2023-04-15T02:20:17.787Z,95.67
2023-04-15T02:21:58.163Z,95.56
2023-04-15T02:23:38.596Z,95.37
2023-04-15T02:25:19.014Z,95.34
2023-04-15T02:26:59.363Z,95.32
2023-04-15T02:28:39.645Z,95.54
2023-04-15T02:30:19.920Z,95.71
2023-04-15T02:32:00.497Z,95.74
2023-04-15T02:33:40.759Z,95.57
2023-04-15T02:35:21.189Z,95.44
2023-04-15T02:37:01.687Z,95.34
2023-04-15T02:38:41.958Z,95.24
2023-04-15T02:40:22.370Z,95.36
2023-04-15T02:42:02.809Z,95.43
2023-04-15T02:43:43.248Z,95.52
2023-04-15T02:45:23.795Z,95.7
2023-04-15T02:47:04.040Z,95.8
2023-04-15T02:48:44.446Z,95.77
2023-04-15T02:50:24.886Z,95.84
2023-04-15T02:52:05.300Z,96
2023-04-15T02:53:45.687Z,96
2023-04-15T02:55:26.039Z,95.97
2023-04-15T02:57:06.435Z,95.96
2023-04-15T02:58:46.884Z,95.72
2023-04-15T03:00:27.261Z,95.76
2023-04-15T03:02:07.785Z,95.8
2023-04-15T03:03:48.140Z,95.95
2023-04-15T03:05:28.418Z,96.05
2023-04-15T03:07:08.744Z,95.97
2023-04-15T03:08:49.038Z,95.87
2023-04-15T03:10:29.338Z,95.83
2023-04-15T03:12:09.662Z,95.83
2023-04-15T03:13:49.934Z,95.8
2023-04-15T03:15:30.252Z,95.85
2023-04-15T03:17:10.498Z,95.68
2023-04-15T03:18:50.826Z,95.17
2023-04-15T03:20:31.181Z,95.15
2023-04-15T03:22:11.411Z,94.96
2023-04-15T03:23:51.782Z,94.78
2023-04-15T03:25:32.155Z,94.69
2023-04-15T03:27:12.512Z,94.73
2023-04-15T03:28:52.913Z,95.05
2023-04-15T03:30:33.263Z,95.39
2023-04-15T03:32:13.663Z,95.59
2023-04-15T03:33:54.036Z,95.83
2023-04-15T03:35:34.435Z,95.92
2023-04-15T03:37:14.801Z,95.71
2023-04-15T03:38:55.219Z,95.46
2023-04-15T03:40:35.633Z,95.21
2023-04-15T03:42:16.074Z,95.17
2023-04-15T03:43:56.477Z,95.12
2023-04-15T03:45:36.873Z,95.4
2023-04-15T03:47:17.325Z,95.6
2023-04-15T03:48:57.668Z,95.76
2023-04-15T03:50:38.067Z,95.77
2023-04-15T03:52:18.398Z,95.81
2023-04-15T03:53:58.762Z,95.86
2023-04-15T03:55:39.116Z,95.81
2023-04-15T03:57:19.499Z,95.77
2023-04-15T03:59:00.150Z,95.76
2023-04-15T04:00:40.305Z,95.9
2023-04-15T04:02:20.758Z,95.95
2023-04-15T04:04:01.128Z,95.97
2023-04-15T04:05:41.360Z,96.05
2023-04-15T04:07:21.674Z,96.15
2023-04-15T04:09:02.137Z,96.2
2023-04-15T04:10:42.253Z,96.34
2023-04-15T04:12:22.581Z,96.5
2023-04-15T04:14:03.017Z,96.57
2023-04-15T04:15:43.394Z,96.66
2023-04-15T04:17:23.859Z,96.75
2023-04-15T04:19:04.388Z,96.7
2023-04-15T04:20:44.651Z,96.63
2023-04-15T04:22:25.071Z,96.61
2023-04-15T04:24:05.430Z,96.6
2023-04-15T04:25:45.877Z,96.41
2023-04-15T04:27:26.326Z,96.25
2023-04-15T04:29:06.719Z,96.09
2023-04-15T04:30:47.066Z,96.12
2023-04-15T04:32:27.543Z,96.13
2023-04-15T04:34:07.880Z,96.04
2023-04-15T04:35:48.313Z,95.87
2023-04-15T04:37:28.795Z,95.71
2023-04-15T04:39:09.173Z,95.59
2023-04-15T04:40:49.553Z,95.43
2023-04-15T04:42:30.042Z,95.23
2023-04-15T04:44:10.367Z,95.2
2023-04-15T04:45:50.776Z,95.1
2023-04-15T04:47:31.163Z,94.96
2023-04-15T04:49:11.530Z,94.78
2023-04-15T04:50:52.083Z,94.62
2023-04-15T04:52:32.348Z,94.31
2023-04-15T04:54:12.825Z,94.07
2023-04-15T04:55:53.203Z,93.95
2023-04-15T04:57:33.583Z,93.63
2023-04-15T04:59:13.985Z,93.44
2023-04-15T05:00:54.459Z,93.1
2023-04-15T05:02:35.028Z,92.86
2023-04-15T05:04:15.386Z,91.88
2023-04-15T05:05:55.735Z,91.62
2023-04-15T05:07:36.198Z,91.2
2023-04-15T05:09:16.585Z,90.82
2023-04-15T05:10:56.959Z,90.14
2023-04-15T05:12:37.307Z,89.89
2023-04-15T05:14:17.734Z,89.79
2023-04-15T05:15:58.092Z,89.7
2023-04-15T05:17:38.564Z,88.97
2023-04-15T05:19:18.879Z,88.95
2023-04-15T05:20:59.219Z,88.61
2023-04-15T05:22:39.561Z,88.94
2023-04-15T05:24:19.969Z,88.9
2023-04-15T05:26:00.399Z,88.91
2023-04-15T05:27:40.825Z,88.94
2023-04-15T05:29:21.234Z,89.15
2023-04-15T05:31:01.645Z,88.89
2023-04-15T05:32:42.068Z,88.4
2023-04-15T05:34:22.486Z,88.61
2023-04-15T05:36:02.933Z,88.72
2023-04-15T05:37:43.393Z,88.92
2023-04-15T05:39:23.788Z,88.73
2023-04-15T05:41:04.211Z,88.77
2023-04-15T05:42:44.653Z,88.75
2023-04-15T05:44:25.022Z,88.35
2023-04-15T05:46:05.463Z,88.1
2023-04-15T05:47:45.840Z,88.16
2023-04-15T05:49:26.243Z,87.97
2023-04-15T05:51:06.647Z,88.19
2023-04-15T05:52:47.137Z,88.23
2023-04-15T05:54:27.521Z,88.26
2023-04-15T05:56:07.966Z,88.43
2023-04-15T05:57:48.275Z,88.55
2023-04-15T05:59:28.797Z,88.79
2023-04-15T06:01:09.134Z,88.89
2023-04-15T06:02:49.500Z,89.05
2023-04-15T06:04:29.884Z,89.09
2023-04-15T06:06:10.296Z,89.42
2023-04-15T06:07:50.602Z,89.95
2023-04-15T06:09:30.996Z,90.14
2023-04-15T06:11:11.449Z,89.64
2023-04-15T06:12:51.867Z,89.43
2023-04-15T06:14:32.229Z,89.36
2023-04-15T06:16:12.698Z,89.53
2023-04-15T06:17:53.093Z,89.91
2023-04-15T06:19:33.415Z,89.97
2023-04-15T06:21:13.789Z,89.81
2023-04-15T06:22:54.158Z,90.02
2023-04-15T06:24:34.539Z,90.12
2023-04-15T06:26:14.844Z,90.74
2023-04-15T06:27:55.306Z,90.47
2023-04-15T06:29:35.749Z,90.65
2023-04-15T06:31:16.147Z,90.93
2023-04-15T06:32:56.565Z,91.06
2023-04-15T06:34:36.936Z,91.14
2023-04-15T06:36:17.345Z,91.11
2023-04-15T06:37:57.737Z,91.3
2023-04-15T06:39:38.245Z,91.31
2023-04-15T06:41:18.695Z,91.32
2023-04-15T06:42:59.078Z,91.57
2023-04-15T06:44:39.540Z,91.73
2023-04-15T06:46:20.182Z,91.72
2023-04-15T06:48:00.496Z,91.82
2023-04-15T06:49:40.760Z,92.2
2023-04-15T06:51:21.174Z,92.23
2023-04-15T06:53:01.602Z,92.28
2023-04-15T06:54:42.071Z,92.57
2023-04-15T06:56:22.455Z,92.58
2023-04-15T06:58:03.001Z,92.72
2023-04-15T06:59:43.408Z,92.87
2023-04-15T07:01:23.891Z,92.83
2023-04-15T07:03:04.328Z,92.88
2023-04-15T07:04:44.665Z,93.02
2023-04-15T07:06:25.145Z,93.02
2023-04-15T07:08:05.576Z,93.22
2023-04-15T07:09:46.041Z,93.26
2023-04-15T07:11:26.478Z,93.29
2023-04-15T07:13:06.844Z,93.45
2023-04-15T07:14:47.261Z,93.69
2023-04-15T07:16:29.410Z,93.77
2023-04-15T07:18:08.156Z,93.67
2023-04-15T07:19:48.563Z,93.92
2023-04-15T07:21:28.966Z,94.04
2023-04-15T07:23:09.337Z,93.89
2023-04-15T07:24:49.656Z,93.62
2023-04-15T07:26:30.048Z,93.59
2023-04-15T07:28:10.448Z,93.91
2023-04-15T07:29:50.785Z,94.01
2023-04-15T07:31:31.358Z,93.97
2023-04-15T07:33:11.661Z,93.91
2023-04-15T07:34:52.093Z,94.22
2023-04-15T07:36:32.500Z,93.99
2023-04-15T07:38:12.877Z,94.13
2023-04-15T07:39:53.273Z,94.26
2023-04-15T07:41:33.657Z,94.35
2023-04-15T07:43:14.058Z,94.57
2023-04-15T07:44:54.498Z,94.54
2023-04-15T07:46:34.940Z,94.56
2023-04-15T07:48:15.315Z,94.73
2023-04-15T07:49:55.840Z,94.85
2023-04-15T07:51:36.233Z,94.46
2023-04-15T07:53:16.650Z,94.38
2023-04-15T07:54:57.043Z,94.15
2023-04-15T07:56:37.429Z,94.18
2023-04-15T07:58:17.800Z,94.42
2023-04-15T07:59:58.304Z,94.62
2023-04-15T08:01:38.697Z,94.57
2023-04-15T08:03:19.322Z,94.64
2023-04-15T08:04:59.747Z,94.29
2023-04-15T08:06:40.221Z,94.24
2023-04-15T08:08:20.423Z,94.16
2023-04-15T08:10:00.946Z,93.95
2023-04-15T08:11:41.341Z,94.01
2023-04-15T08:13:21.790Z,94.07
2023-04-15T08:15:02.151Z,94.28
2023-04-15T08:16:42.572Z,94.45
2023-04-15T08:18:23.013Z,94.46
2023-04-15T08:20:03.392Z,94.21
2023-04-15T08:21:43.749Z,94.07
2023-04-15T08:23:24.166Z,93.99
2023-04-15T08:25:04.587Z,93.82
2023-04-15T08:26:44.956Z,94.12
2023-04-15T08:28:25.296Z,94.11
2023-04-15T08:30:05.683Z,94.14
2023-04-15T08:31:46.164Z,94.21
2023-04-15T08:33:26.515Z,94.25
2023-04-15T08:35:06.861Z,93.69
2023-04-15T08:36:47.222Z,93.46
2023-04-15T08:38:27.621Z,93.43
2023-04-15T08:40:07.994Z,93.73
2023-04-15T08:41:48.337Z,93.5
2023-04-15T08:43:28.735Z,93.64
2023-04-15T08:45:09.145Z,93.5
2023-04-15T08:46:49.613Z,93.49
2023-04-15T08:48:29.929Z,93.04
2023-04-15T08:50:10.334Z,93.04
2023-04-15T08:51:50.774Z,92.97
2023-04-15T08:53:31.231Z,93.01
2023-04-15T08:55:11.696Z,93
2023-04-15T08:56:52.128Z,93.29
2023-04-15T08:58:32.435Z,93.74
2023-04-15T09:00:12.839Z,93.38
2023-04-15T09:01:53.348Z,93.42
2023-04-15T09:03:33.896Z,93.3
2023-04-15T09:05:14.156Z,93.21
2023-04-15T09:06:54.614Z,93.06
2023-04-15T09:08:35.015Z,93.23
2023-04-15T09:10:15.433Z,93.24
2023-04-15T09:11:55.897Z,93.42
2023-04-15T09:13:36.311Z,93.5
2023-04-15T09:15:16.694Z,93.76
2023-04-15T09:16:57.159Z,93.7
2023-04-15T09:18:37.468Z,93.51
2023-04-15T09:20:17.794Z,93.48
2023-04-15T09:21:59.253Z,93.59
2023-04-15T09:23:38.709Z,93.91
2023-04-15T09:25:19.053Z,94.23
2023-04-15T09:26:59.412Z,94.02
2023-04-15T09:28:39.825Z,94.05
2023-04-15T09:30:20.261Z,94.25
2023-04-15T09:32:00.632Z,94.26
2023-04-15T09:33:41.059Z,94.09
2023-04-15T09:35:21.442Z,93.9
2023-04-15T09:37:01.867Z,93.32
2023-04-15T09:38:42.266Z,92.87
2023-04-15T09:40:22.637Z,92.86
2023-04-15T09:42:03.075Z,93.03
2023-04-15T09:43:43.460Z,93.2
2023-04-15T09:45:25.655Z,93.37
2023-04-15T09:47:04.335Z,93.57
2023-04-15T09:48:44.797Z,93.35
2023-04-15T09:50:25.174Z,93.19
2023-04-15T09:52:06.662Z,93.1
2023-04-15T09:53:45.862Z,93.35
2023-04-15T09:55:26.326Z,93.48
2023-04-15T09:57:06.645Z,93.6
2023-04-15T09:58:47.088Z,93.55
2023-04-15T10:00:27.560Z,93.8
2023-04-15T10:02:08.003Z,93.35
2023-04-15T10:03:48.363Z,93.3
2023-04-15T10:07:08.960Z,93.39
2023-04-15T10:08:49.347Z,93.18
2023-04-15T10:10:29.708Z,93.32
2023-04-15T10:12:10.163Z,93.35
2023-04-15T10:13:50.575Z,93.58
2023-04-15T10:15:31.036Z,93.72
2023-04-15T10:17:11.535Z,94.16
2023-04-15T10:18:51.984Z,93.94
2023-04-15T10:20:32.341Z,93.79
2023-04-15T10:22:12.867Z,93.55
2023-04-15T10:23:53.175Z,93.63
2023-04-15T10:25:33.531Z,94.07
2023-04-15T10:27:13.903Z,93.77
2023-04-15T10:28:54.389Z,93.87
2023-04-15T10:30:34.809Z,93.81
2023-04-15T10:32:15.211Z,93.91
2023-04-15T10:33:55.598Z,94.04
2023-04-15T10:35:35.903Z,94.01
2023-04-15T10:37:16.317Z,94
2023-04-15T10:38:56.846Z,93.62
2023-04-15T10:40:37.182Z,93.63
2023-04-15T10:42:17.502Z,94
2023-04-15T10:43:57.950Z,93.8
2023-04-15T10:45:38.294Z,93.8
2023-04-15T10:47:18.694Z,94.06
2023-04-15T10:48:59.158Z,94.2
2023-04-15T10:50:39.590Z,94.2
2023-04-15T10:52:20.004Z,94.26
2023-04-15T10:54:00.438Z,93.97
2023-04-15T10:55:40.910Z,93.88
2023-04-15T10:57:21.284Z,94.11
2023-04-15T10:59:01.702Z,93.92
2023-04-15T11:00:42.024Z,94.01
2023-04-15T11:02:22.590Z,93.93
2023-04-15T11:04:03.224Z,93.82
2023-04-15T11:05:43.262Z,93.68
2023-04-15T11:07:23.531Z,93.76
2023-04-15T11:09:03.912Z,93.74
2023-04-15T11:10:44.324Z,93.53
2023-04-15T11:12:24.820Z,93.64
2023-04-15T11:14:05.214Z,93.57
2023-04-15T11:15:45.666Z,93.71
2023-04-15T11:17:26.088Z,93.63
2023-04-15T11:19:06.447Z,93.53
2023-04-15T11:20:47.042Z,93.46
2023-04-15T11:22:27.437Z,93.36
2023-04-15T11:24:08.184Z,93.46
2023-04-15T11:25:48.266Z,93.55
2023-04-15T11:27:28.680Z,93.59
2023-04-15T11:29:09.005Z,93.69
2023-04-15T11:30:49.483Z,93.91
2023-04-15T11:32:32.970Z,94.2
2023-04-15T11:34:10.313Z,94.08
2023-04-15T11:35:50.684Z,94.24
2023-04-15T11:37:31.050Z,94.27
2023-04-15T11:39:11.533Z,93.98
2023-04-15T11:40:51.920Z,94.31
2023-04-15T11:42:43.094Z,94.33
2023-04-15T11:44:12.502Z,94.56
2023-04-15T11:45:53.274Z,94.58
2023-04-15T11:47:33.323Z,94.19
2023-04-15T11:49:13.706Z,94.28
2023-04-15T11:50:54.168Z,94.24
2023-04-15T11:52:34.533Z,94.01
2023-04-15T11:54:15.033Z,94.17
2023-04-15T11:55:55.467Z,94.21
2023-04-15T11:57:35.855Z,94.33
2023-04-15T11:59:16.247Z,93.94
2023-04-15T12:00:56.645Z,93.85
2023-04-15T12:02:37.180Z,93.92
2023-04-15T12:04:17.687Z,94.13
2023-04-15T12:05:57.893Z,94.15
2023-04-15T12:07:38.273Z,93.91
2023-04-15T12:09:18.650Z,93.96
2023-04-15T12:10:59.096Z,93.93
2023-04-15T12:12:39.468Z,94.11
2023-04-15T12:14:19.947Z,94.15
2023-04-15T12:16:00.431Z,94.07
2023-04-15T12:17:51.258Z,94.23
2023-04-15T12:19:21.195Z,94.21
2023-04-15T12:21:01.588Z,94.56
2023-04-15T12:22:42.009Z,94.05
2023-04-15T12:24:22.460Z,94.31
2023-04-15T12:26:02.897Z,94.51
2023-04-15T12:27:43.414Z,94.37
2023-04-15T12:29:23.842Z,94.39
2023-04-15T12:31:04.340Z,94.68
2023-04-15T12:32:44.699Z,94.67
2023-04-15T12:34:25.071Z,94.7
2023-04-15T12:36:05.504Z,94.74
2023-04-15T12:37:45.904Z,94.83
2023-04-15T12:39:27.660Z,95.02
2023-04-15T12:41:06.839Z,95.07
2023-04-15T12:42:47.302Z,95.06
2023-04-15T12:44:27.781Z,95.33
2023-04-15T12:46:08.295Z,94.96
2023-04-15T12:47:48.739Z,95
2023-04-15T12:49:29.060Z,94.96
2023-04-15T12:51:09.436Z,94.87
2023-04-15T12:52:49.913Z,94.9
2023-04-15T12:54:30.325Z,94.76
2023-04-15T12:56:10.718Z,94.65
2023-04-15T12:57:51.163Z,94.72
2023-04-15T12:59:31.580Z,94.76
2023-04-15T13:01:11.960Z,94.8
2023-04-15T13:02:52.432Z,94.99
2023-04-15T13:04:32.912Z,95.08
2023-04-15T13:06:13.216Z,94.85
2023-04-15T13:07:53.610Z,94.77
2023-04-15T13:09:33.933Z,94.69
2023-04-15T13:11:14.320Z,94.71
2023-04-15T13:12:54.701Z,94.94
2023-04-15T13:14:35.099Z,94.87
2023-04-15T13:16:15.492Z,94.93
2023-04-15T13:17:55.941Z,95.06
2023-04-15T13:19:36.376Z,94.93
2023-04-15T13:21:16.782Z,94.8
2023-04-15T13:22:57.198Z,94.79
2023-04-15T13:24:37.593Z,94.77
2023-04-15T13:26:18.062Z,94.92
2023-04-15T13:27:58.517Z,94.77
2023-04-15T13:29:38.870Z,94.7
2023-04-15T13:31:19.376Z,94.65
2023-04-15T13:32:59.855Z,94.73
2023-04-15T13:34:40.216Z,94.99
2023-04-15T13:36:20.629Z,95.02
2023-04-15T13:38:01.092Z,94.92
2023-04-15T13:39:41.536Z,95.08
2023-04-15T13:41:22.040Z,94.9
2023-04-15T13:43:02.365Z,94.89
2023-04-15T13:44:42.749Z,94.95
2023-04-15T13:46:23.210Z,95.14
2023-04-15T13:48:03.575Z,95.14
2023-04-15T13:49:43.886Z,95.26
2023-04-15T13:51:24.353Z,95.25
2023-04-15T13:53:04.659Z,95.37
2023-04-15T13:54:45.083Z,95.19
2023-04-15T13:56:25.608Z,95.18
2023-04-15T13:58:06.027Z,95.21
2023-04-15T13:59:46.462Z,95.28
2023-04-15T14:01:26.868Z,95.34
2023-04-15T14:03:07.370Z,95.24
2023-04-15T14:04:47.697Z,95.27
2023-04-15T14:06:27.949Z,95.13
2023-04-15T14:08:08.500Z,95.14
2023-04-15T14:09:48.713Z,95.01
2023-04-15T14:11:32.253Z,95.1
2023-04-15T14:13:09.599Z,95.36
2023-04-15T14:14:50.033Z,95.35
2023-04-15T14:16:30.492Z,95.39
2023-04-15T14:18:10.820Z,95.21
2023-04-15T14:19:51.224Z,95.3
2023-04-15T14:21:31.574Z,95.34
2023-04-15T14:23:12.016Z,95.32
2023-04-15T14:24:52.369Z,95.49
2023-04-15T14:26:32.744Z,95.5
2023-04-15T14:28:13.158Z,95.46
2023-04-15T14:29:53.506Z,95.55
2023-04-15T14:31:33.935Z,95.67
2023-04-15T14:33:14.283Z,95.67
2023-04-15T14:34:54.732Z,95.57
2023-04-15T14:36:35.121Z,95.59
2023-04-15T14:38:15.562Z,95.6
2023-04-15T14:39:55.946Z,95.63
2023-04-15T14:41:36.294Z,95.7
2023-04-15T14:43:16.775Z,95.73
2023-04-15T14:44:57.165Z,95.85
2023-04-15T14:46:37.647Z,95.73
2023-04-15T14:48:18.033Z,95.85
2023-04-15T14:49:58.470Z,95.91
2023-04-15T14:51:41.659Z,96.03
2023-04-15T14:53:19.308Z,95.99
2023-04-15T14:54:59.683Z,96.07
2023-04-15T14:56:40.038Z,96.28
2023-04-15T14:58:20.407Z,96.42
2023-04-15T15:00:00.855Z,96.56
2023-04-15T15:01:41.194Z,96.55
2023-04-15T15:03:21.707Z,96.53
2023-04-15T15:05:02.096Z,96.55
2023-04-15T15:06:42.389Z,96.6
2023-04-15T15:08:22.774Z,96.67
2023-04-15T15:10:03.312Z,96.72
2023-04-15T15:11:43.802Z,96.72
2023-04-15T15:13:24.122Z,96.71
2023-04-15T15:15:12.423Z,96.67
2023-04-15T15:16:44.970Z,96.61
2023-04-15T15:18:25.326Z,96.62
2023-04-15T15:20:05.759Z,96.73
2023-04-15T15:21:46.168Z,96.83
2023-04-15T15:23:26.541Z,96.82
2023-04-15T15:25:06.987Z,96.83
2023-04-15T15:26:47.362Z,96.77
2023-04-15T15:28:27.782Z,96.67
2023-04-15T15:30:08.202Z,96.68
2023-04-15T15:31:48.703Z,96.69
2023-04-15T15:33:30.239Z,96.68
2023-04-15T15:35:09.505Z,96.68
2023-04-15T15:36:49.964Z,96.74
2023-04-15T15:38:30.401Z,96.62
2023-04-15T15:40:10.889Z,96.49
2023-04-15T15:41:51.280Z,96.24
2023-04-15T15:43:31.637Z,96.25
2023-04-15T15:45:11.985Z,96.15
2023-04-15T15:46:52.528Z,96.25
2023-04-15T15:48:32.851Z,96.3
2023-04-15T15:50:13.265Z,96.17
2023-04-15T15:51:53.724Z,96.03
2023-04-15T15:53:34.142Z,96.02
2023-04-15T15:55:14.553Z,96.1
2023-04-15T15:56:55.022Z,96.02
2023-04-15T15:58:35.329Z,95.86
2023-04-15T16:00:15.735Z,95.74
2023-04-15T16:01:56.259Z,95.66
2023-04-15T16:03:36.679Z,95.63
2023-04-15T16:05:17.014Z,95.68
2023-04-15T16:06:57.414Z,95.65
2023-04-15T16:08:37.883Z,95.4
2023-04-15T16:10:18.293Z,95.39
2023-04-15T16:11:58.718Z,94.98
2023-04-15T16:13:39.095Z,94.63
2023-04-15T16:15:19.550Z,94.42
2023-04-15T16:17:00.039Z,94.44
2023-04-15T16:18:40.436Z,94.49
2023-04-15T16:20:20.900Z,94.15
2023-04-15T16:22:01.273Z,94.09
2023-04-15T16:23:41.675Z,94.04
2023-04-15T16:25:21.994Z,94.15
2023-04-15T16:27:02.449Z,94.03
2023-04-15T16:28:42.917Z,94.1
2023-04-15T16:30:23.279Z,94.16
2023-04-15T16:32:03.657Z,94.33
2023-04-15T16:33:44.157Z,94.34
2023-04-15T16:35:24.546Z,94.08
2023-04-15T16:37:04.936Z,94.19
2023-04-15T16:38:45.329Z,94.14
2023-04-15T16:40:25.765Z,94.24
2023-04-15T16:42:06.107Z,94.39
2023-04-15T16:43:46.583Z,94.41
2023-04-15T16:45:26.842Z,94.42
2023-04-15T16:47:07.383Z,94.37
2023-04-15T16:48:47.824Z,94.43
2023-04-15T16:50:28.210Z,94.53
2023-04-15T16:52:08.648Z,94.45
2023-04-15T16:53:49.090Z,94.27
2023-04-15T16:55:29.514Z,94.16
2023-04-15T16:57:09.986Z,94.08
2023-04-15T16:58:50.187Z,94.09
2023-04-15T17:00:30.598Z,94.18
2023-04-15T17:02:11.198Z,94.05
2023-04-15T17:03:52.804Z,94.18
2023-04-15T17:05:31.885Z,94.04
2023-04-15T17:07:12.274Z,94.05
2023-04-15T17:08:52.636Z,94.18
2023-04-15T17:10:33.058Z,94.06
2023-04-15T17:12:13.458Z,94
2023-04-15T17:13:53.844Z,94.09
2023-04-15T17:15:34.339Z,94
2023-04-15T17:17:14.718Z,94.05
2023-04-15T17:18:55.116Z,93.97
2023-04-15T17:20:35.446Z,94.02
2023-04-15T17:22:15.849Z,94.1
2023-04-15T17:23:56.246Z,94.09
2023-04-15T17:25:36.707Z,94.17
2023-04-15T17:27:17.142Z,94.27
2023-04-15T17:28:57.599Z,94.22
2023-04-15T17:30:38.001Z,94.22
2023-04-15T17:32:18.376Z,94.29
2023-04-15T17:34:06.361Z,94.25
2023-04-15T17:35:39.206Z,94.29
2023-04-15T17:37:19.572Z,94.3
2023-04-15T17:38:59.942Z,94.46
2023-04-15T17:40:40.274Z,94.36
2023-04-15T17:42:20.661Z,94.27
2023-04-15T17:44:01.082Z,94.22
2023-04-15T17:45:41.501Z,94.4
2023-04-15T17:47:21.925Z,94.48
2023-04-15T17:49:02.461Z,94.53
2023-04-15T17:50:42.719Z,94.63
2023-04-15T17:52:23.105Z,94.59
2023-04-15T17:54:04.077Z,94.67
2023-04-15T17:55:43.906Z,94.71
2023-04-15T17:57:24.252Z,94.73
2023-04-15T17:59:04.662Z,94.75
2023-04-15T18:00:45.017Z,94.64
2023-04-15T18:02:25.503Z,94.73
2023-04-15T18:04:06.113Z,94.81
2023-04-15T18:05:46.106Z,94.74
2023-04-15T18:07:26.459Z,94.8
2023-04-15T18:09:07.063Z,94.86
2023-04-15T18:10:47.295Z,94.9
2023-04-15T18:12:27.784Z,94.88
2023-04-15T18:14:08.204Z,94.84
2023-04-15T18:15:48.658Z,94.89
2023-04-15T18:17:29.048Z,94.8
2023-04-15T18:19:09.450Z,94.68
2023-04-15T18:20:49.880Z,94.6
2023-04-15T18:22:30.313Z,94.43
2023-04-15T18:24:10.694Z,94.25
2023-04-15T18:25:51.053Z,94
2023-04-15T18:27:31.415Z,93.97
2023-04-15T18:29:11.809Z,93.95
2023-04-15T18:30:52.163Z,93.84
2023-04-15T18:32:32.871Z,93.87
2023-04-15T18:34:12.937Z,93.86
2023-04-15T18:35:53.430Z,93.83
2023-04-15T18:37:33.766Z,94
2023-04-15T18:39:14.172Z,94.13
2023-04-15T18:40:57.639Z,94.07
2023-04-15T18:42:35.021Z,93.96
2023-04-15T18:44:15.429Z,94.02
2023-04-15T18:45:55.831Z,93.81
2023-04-15T18:47:36.210Z,93.52
2023-04-15T18:49:16.626Z,93.69
2023-04-15T18:50:57.088Z,93.59
2023-04-15T18:52:37.531Z,93.53
2023-04-15T18:54:17.908Z,93.65
2023-04-15T18:55:58.306Z,93.74
2023-04-15T18:57:38.719Z,93.89
2023-04-15T18:59:29.971Z,94.04
2023-04-15T19:00:59.735Z,94.21
2023-04-15T19:02:39.979Z,94.33
2023-04-15T19:04:20.466Z,94.38
2023-04-15T19:06:00.883Z,94.49
2023-04-15T19:07:41.358Z,94.72
2023-04-15T19:09:21.752Z,94.88
2023-04-15T19:11:02.161Z,94.89
2023-04-15T19:12:42.602Z,94.97
2023-04-15T19:14:22.992Z,94.98
2023-04-15T19:16:03.398Z,94.97
2023-04-15T19:17:43.857Z,94.96
2023-04-15T19:19:24.312Z,94.99
2023-04-15T19:21:04.638Z,94.83
2023-04-15T19:22:45.156Z,94.9
2023-04-15T19:24:25.586Z,94.89
2023-04-15T19:26:06.089Z,94.97
2023-04-15T19:27:46.539Z,94.97
2023-04-15T19:29:26.941Z,95.15
2023-04-15T19:31:07.416Z,95.25
2023-04-15T19:32:47.905Z,95.46
2023-04-15T19:34:28.301Z,95.66
2023-04-15T19:36:08.702Z,95.8
2023-04-15T19:37:49.053Z,95.92
2023-04-15T19:39:29.550Z,96.07
2023-04-15T19:41:09.884Z,96.14
2023-04-15T19:42:50.332Z,96.25
2023-04-15T19:44:30.846Z,96.25
2023-04-15T19:46:11.251Z,96.37
2023-04-15T19:47:54.868Z,96.35
2023-04-15T19:49:32.154Z,96.31
2023-04-15T19:51:12.557Z,96.32
2023-04-15T19:52:52.939Z,96.35
2023-04-15T19:54:33.369Z,96.4
2023-04-15T19:56:13.649Z,96.46
2023-04-15T19:57:54.062Z,96.53
2023-04-15T19:59:34.505Z,96.59
2023-04-15T20:01:15.038Z,96.68
2023-04-15T20:02:55.549Z,96.71
2023-04-15T20:04:35.988Z,96.75
2023-04-15T20:06:16.284Z,96.84
2023-04-15T20:07:58.614Z,96.87
2023-04-15T20:09:37.201Z,96.96
2023-04-15T20:11:17.628Z,97.02
2023-04-15T20:12:58.048Z,97.07
2023-04-15T20:14:38.418Z,97.13
2023-04-15T20:16:18.847Z,97.27
2023-04-15T20:17:59.345Z,97.28
2023-04-15T20:19:39.658Z,97.38
2023-04-15T20:21:20.085Z,97.42
2023-04-15T20:23:00.571Z,97.5
2023-04-15T20:24:40.995Z,97.54
2023-04-15T20:26:21.378Z,97.5
2023-04-15T20:28:01.737Z,97.44
2023-04-15T20:29:42.195Z,97.41
2023-04-15T20:31:22.687Z,97.33
2023-04-15T20:33:03.039Z,97.42
2023-04-15T20:34:43.516Z,97.4
2023-04-15T20:36:23.815Z,97.4
2023-04-15T20:38:04.195Z,97.27
2023-04-15T20:39:44.615Z,97.23
2023-04-15T20:41:25.034Z,97.2
2023-04-15T20:43:05.454Z,97.17
2023-04-15T20:44:45.867Z,97.13
2023-04-15T20:46:27.553Z,97.08
2023-04-15T20:48:06.692Z,97.09
2023-04-15T20:49:47.093Z,97.06
2023-04-15T20:51:27.408Z,97.02
2023-04-15T20:53:07.799Z,97.02
2023-04-15T20:54:48.231Z,97.02
2023-04-15T20:56:28.605Z,97.07
2023-04-15T20:58:09.086Z,97.06
2023-04-15T20:59:49.505Z,97.16
2023-04-15T21:01:29.899Z,97.16
2023-04-15T21:03:10.461Z,97.23
2023-04-15T21:04:50.674Z,97.24
2023-04-15T21:06:31.120Z,97.19
2023-04-15T21:08:11.547Z,97.21
2023-04-15T21:09:52.000Z,97.19
2023-04-15T21:11:53.351Z,97.2
2023-04-15T21:13:12.862Z,97.18
2023-04-15T21:14:53.290Z,97.22
2023-04-15T21:16:33.747Z,97.2
2023-04-15T21:18:14.036Z,97.24
2023-04-15T21:19:54.368Z,97.25
2023-04-15T21:21:34.785Z,97.31
2023-04-15T21:23:15.184Z,97.26
2023-04-15T21:24:55.700Z,97.23
2023-04-15T21:26:36.295Z,97.29
2023-04-15T21:28:16.571Z,97.28
2023-04-15T21:29:57.011Z,97.31
2023-04-15T21:31:37.547Z,97.35
2023-04-15T21:33:17.811Z,97.36
2023-04-15T21:34:58.133Z,97.37
2023-04-15T21:36:38.514Z,97.4
2023-04-15T21:38:19.586Z,97.4
2023-04-15T21:39:59.301Z,97.34
2023-04-15T21:41:39.757Z,97.34